createdAt,value
2022-12-20T00:01:30.169Z,89.76
2022-12-20T00:03:58.895Z,89.84
2022-12-20T00:06:26.254Z,89.38
2022-12-20T00:08:55.234Z,89.38
2022-12-20T00:11:23.093Z,89.32
2022-12-20T00:13:49.765Z,89.46
2022-12-20T00:16:19.768Z,88.89
2022-12-20T00:18:46.717Z,88.92
2022-12-20T00:21:14.706Z,88.84
2022-12-20T00:23:42.024Z,89.07
2022-12-20T00:26:19.819Z,89.32
2022-12-20T00:28:47.138Z,88.85
2022-12-20T00:31:16.373Z,88.87
2022-12-20T00:33:47.038Z,89.48
2022-12-20T00:36:14.822Z,89.33
2022-12-20T00:38:41.737Z,88.90
2022-12-20T00:41:11.190Z,88.98
2022-12-20T00:43:39.845Z,89.53
2022-12-20T00:46:09.125Z,88.82
2022-12-20T00:48:37.065Z,89.31
2022-12-20T00:51:08.759Z,88.97
2022-12-20T00:53:36.556Z,89.20
2022-12-20T00:56:04.512Z,89.46
2022-12-20T00:58:33.681Z,88.74
2022-12-20T01:01:00.612Z,88.85
2022-12-20T01:03:27.899Z,89.04
2022-12-20T01:06:00.591Z,89.01
2022-12-20T01:08:29.259Z,88.85
2022-12-20T01:11:05.115Z,89.13
2022-12-20T01:13:33.094Z,88.66
2022-12-20T01:16:17.661Z,88.71
2022-12-20T01:18:44.789Z,89.21
2022-12-20T01:21:14.151Z,88.79
2022-12-20T01:23:41.429Z,88.90
2022-12-20T01:26:11.860Z,89.07
2022-12-20T01:28:40.928Z,88.81
2022-12-20T01:31:09.661Z,89.14
2022-12-20T01:33:36.854Z,89.30
2022-12-20T01:36:09.102Z,89.03
2022-12-20T01:38:35.792Z,88.87
2022-12-20T01:41:03.912Z,89.54
2022-12-20T01:43:47.464Z,89.87
2022-12-20T01:46:14.340Z,89.75
2022-12-20T01:48:43.897Z,89.98
2022-12-20T01:51:11.051Z,90.18
2022-12-20T01:53:40.252Z,90.00
2022-12-20T01:56:08.602Z,90.20
2022-12-20T01:58:38.944Z,90.39
2022-12-20T02:01:05.820Z,90.21
2022-12-20T02:03:32.752Z,89.65
2022-12-20T02:06:14.564Z,89.50
2022-12-20T02:08:41.405Z,89.81
2022-12-20T02:11:29.449Z,89.76
2022-12-20T02:14:14.684Z,89.43
2022-12-20T02:17:22.384Z,89.42
2022-12-20T02:19:58.077Z,89.52
2022-12-20T02:22:45.153Z,89.30
2022-12-20T02:25:36.687Z,89.43
2022-12-20T02:28:28.029Z,89.32
2022-12-20T02:30:57.955Z,89.03
2022-12-20T02:33:28.416Z,89.17
2022-12-20T02:35:55.087Z,89.07
2022-12-20T02:38:37.058Z,89.08
2022-12-20T02:41:20.637Z,89.31
2022-12-20T02:44:13.993Z,88.97
2022-12-20T02:46:41.319Z,89.36
2022-12-20T02:49:17.067Z,89.32
2022-12-20T02:51:51.669Z,88.90
2022-12-20T02:54:19.539Z,88.94
2022-12-20T02:56:52.927Z,89.50
2022-12-20T02:59:24.805Z,89.50
2022-12-20T03:01:54.701Z,89.25
2022-12-20T03:04:27.241Z,89.00
2022-12-20T03:06:56.992Z,89.31
2022-12-20T03:09:23.588Z,88.93
2022-12-20T03:11:51.045Z,89.16
2022-12-20T03:14:17.815Z,89.39
2022-12-20T03:16:44.604Z,89.64
2022-12-20T03:19:13.785Z,88.88
2022-12-20T03:21:40.871Z,88.91
2022-12-20T03:24:07.638Z,89.14
2022-12-20T03:26:34.428Z,89.51
2022-12-20T03:29:04.751Z,89.50
2022-12-20T03:31:31.696Z,89.35
2022-12-20T03:33:58.388Z,89.53
2022-12-20T03:36:25.607Z,89.99
2022-12-20T03:38:53.391Z,90.00
2022-12-20T03:41:22.269Z,90.24
2022-12-20T03:43:49.817Z,89.84
2022-12-20T03:46:16.943Z,89.67
2022-12-20T03:48:44.081Z,89.40
2022-12-20T03:51:10.876Z,89.07
2022-12-20T03:53:37.457Z,89.14
2022-12-20T03:56:04.359Z,88.75
2022-12-20T03:58:30.956Z,89.25
2022-12-20T04:00:58.081Z,88.87
2022-12-20T04:03:24.955Z,88.95
2022-12-20T04:05:51.899Z,89.05
2022-12-20T04:08:18.446Z,88.52
2022-12-20T04:11:03.599Z,88.14
2022-12-20T04:13:30.141Z,88.60
2022-12-20T04:16:00.297Z,88.58
2022-12-20T04:18:27.576Z,88.51
2022-12-20T04:20:54.877Z,88.99
2022-12-20T04:23:21.632Z,88.06
2022-12-20T04:25:48.318Z,88.37
2022-12-20T04:28:14.874Z,88.37
2022-12-20T04:30:41.440Z,88.64
2022-12-20T04:33:07.991Z,88.68
2022-12-20T04:35:35.066Z,88.60
2022-12-20T04:38:01.863Z,89.05
2022-12-20T04:40:28.597Z,89.47
2022-12-20T04:42:55.259Z,89.89
2022-12-20T04:45:21.917Z,89.74
2022-12-20T04:47:48.567Z,89.96
2022-12-20T04:50:15.191Z,89.78
2022-12-20T04:53:00.359Z,89.71
2022-12-20T04:55:26.966Z,89.13
2022-12-20T04:58:08.060Z,89.33
2022-12-20T05:00:37.052Z,89.31
2022-12-20T05:03:04.021Z,89.15
2022-12-20T05:05:30.907Z,89.11
2022-12-20T05:07:57.851Z,89.38
2022-12-20T05:10:24.625Z,89.09
2022-12-20T05:12:51.407Z,89.01
2022-12-20T05:15:18.083Z,89.22
2022-12-20T05:17:44.793Z,89.41
2022-12-20T05:20:11.968Z,89.50
2022-12-20T05:22:57.151Z,89.55
2022-12-20T05:25:42.185Z,89.53
2022-12-20T05:28:08.732Z,89.64
2022-12-20T05:30:35.411Z,89.74
2022-12-20T05:33:02.050Z,90.13
2022-12-20T05:35:29.295Z,89.91
2022-12-20T05:37:56.228Z,90.05
2022-12-20T05:40:22.919Z,90.52
2022-12-20T05:42:50.209Z,91.00
2022-12-20T05:45:16.923Z,90.94
2022-12-20T05:47:46.692Z,90.39
2022-12-20T05:50:18.658Z,90.69
2022-12-20T05:52:45.915Z,90.60
2022-12-20T05:55:13.759Z,90.33
2022-12-20T05:57:40.784Z,90.42
2022-12-20T06:00:09.494Z,90.28
2022-12-20T06:02:39.149Z,90.13
2022-12-20T06:05:06.523Z,89.95
2022-12-20T06:07:38.825Z,89.83
2022-12-20T06:10:06.226Z,90.26
2022-12-20T06:12:38.724Z,89.94
2022-12-20T06:15:05.839Z,89.63
2022-12-20T06:17:32.577Z,89.63
2022-12-20T06:19:59.149Z,89.22
2022-12-20T06:22:26.306Z,89.18
2022-12-20T06:24:53.111Z,89.62
2022-12-20T06:27:21.565Z,89.56
2022-12-20T06:29:52.063Z,89.29
2022-12-20T06:32:18.947Z,88.92
2022-12-20T06:34:45.946Z,88.91
2022-12-20T06:37:12.993Z,88.88
2022-12-20T06:39:39.816Z,88.34
2022-12-20T06:42:07.017Z,89.01
2022-12-20T06:44:33.667Z,89.19
2022-12-20T06:47:00.410Z,89.17
2022-12-20T06:49:27.139Z,89.27
2022-12-20T06:51:53.788Z,89.24
2022-12-20T06:54:27.946Z,89.49
2022-12-20T06:56:54.463Z,88.68
2022-12-20T06:59:21.280Z,88.93
2022-12-20T07:01:48.067Z,89.19
2022-12-20T07:04:14.789Z,88.95
2022-12-20T07:06:41.303Z,89.13
2022-12-20T07:09:09.283Z,89.29
2022-12-20T07:11:37.964Z,89.09
2022-12-20T07:14:04.623Z,88.83
2022-12-20T07:16:32.577Z,88.97
2022-12-20T07:18:59.540Z,88.96
2022-12-20T07:21:26.235Z,89.10
2022-12-20T07:23:53.698Z,89.03
2022-12-20T07:26:20.675Z,88.92
2022-12-20T07:28:47.322Z,88.21
2022-12-20T07:31:14.103Z,88.82
2022-12-20T07:33:40.797Z,89.22
2022-12-20T07:36:14.238Z,88.19
2022-12-20T07:38:40.876Z,88.68
2022-12-20T07:41:16.791Z,88.64
2022-12-20T07:43:43.818Z,88.65
2022-12-20T07:46:14.065Z,89.04
2022-12-20T07:48:40.903Z,88.21
2022-12-20T07:51:12.039Z,87.95
2022-12-20T07:53:43.304Z,88.35
2022-12-20T07:56:12.686Z,88.04
2022-12-20T07:58:41.741Z,87.85
2022-12-20T08:01:10.267Z,88.38
2022-12-20T08:03:44.223Z,87.19
2022-12-20T08:06:11.081Z,87.45
2022-12-20T08:08:43.131Z,87.78
2022-12-20T08:11:11.171Z,87.35
2022-12-20T08:13:44.415Z,87.25
2022-12-20T08:16:13.087Z,87.41
2022-12-20T08:18:39.763Z,86.78
2022-12-20T08:21:06.344Z,86.80
2022-12-20T08:23:33.009Z,86.35
2022-12-20T08:26:03.040Z,86.77
2022-12-20T08:28:29.685Z,86.61
2022-12-20T08:31:09.281Z,86.35
2022-12-20T08:33:37.849Z,86.57
2022-12-20T08:36:07.495Z,86.63
2022-12-20T08:38:34.549Z,86.23
2022-12-20T08:41:10.925Z,85.65
2022-12-20T08:43:38.594Z,85.16
2022-12-20T08:46:08.352Z,84.66
2022-12-20T08:48:35.448Z,85.41
2022-12-20T08:51:04.942Z,84.90
2022-12-20T08:53:33.178Z,84.88
2022-12-20T08:56:12.533Z,85.02
2022-12-20T08:58:41.702Z,84.02
2022-12-20T09:01:13.695Z,84.71
2022-12-20T09:03:41.330Z,84.69
2022-12-20T09:06:13.547Z,84.50
2022-12-20T09:08:41.000Z,83.79
2022-12-20T09:11:13.873Z,85.08
2022-12-20T09:13:44.280Z,84.42
2022-12-20T09:16:13.965Z,84.65
2022-12-20T09:18:43.554Z,84.13
2022-12-20T09:21:11.832Z,83.73
2022-12-20T09:23:38.978Z,84.15
2022-12-20T09:26:10.404Z,84.68
2022-12-20T09:28:37.136Z,83.04
2022-12-20T09:31:06.659Z,83.50
2022-12-20T09:33:34.869Z,83.82
2022-12-20T09:36:02.029Z,84.24
2022-12-20T09:38:29.575Z,82.59
2022-12-20T09:41:02.992Z,83.62
2022-12-20T09:43:30.446Z,83.36
2022-12-20T09:46:00.229Z,82.48
2022-12-20T09:48:37.497Z,83.51
2022-12-20T09:51:10.207Z,83.09
2022-12-20T09:53:46.671Z,82.59
2022-12-20T09:56:25.294Z,82.37
2022-12-20T09:59:13.170Z,82.55
2022-12-20T10:01:44.554Z,83.49
2022-12-20T10:04:33.868Z,83.53
2022-12-20T10:07:16.472Z,82.55
2022-12-20T10:09:53.590Z,82.05
2022-12-20T10:12:26.081Z,81.74
2022-12-20T10:15:14.933Z,81.79
2022-12-20T10:18:06.570Z,82.20
2022-12-20T10:21:05.564Z,82.18
2022-12-20T10:24:18.084Z,82.10
2022-12-20T10:26:47.778Z,83.38
2022-12-20T10:29:14.307Z,82.62
2022-12-20T10:31:41.262Z,81.90
2022-12-20T10:34:08.019Z,80.74
2022-12-20T10:36:36.540Z,81.71
2022-12-20T10:39:08.773Z,81.41
2022-12-20T10:41:47.569Z,80.60
2022-12-20T10:44:25.908Z,80.37
2022-12-20T10:46:54.913Z,81.30
2022-12-20T10:49:30.713Z,81.51
2022-12-20T10:52:08.508Z,81.07
2022-12-20T10:54:40.413Z,81.15
2022-12-20T10:57:15.997Z,80.47
2022-12-20T10:59:48.150Z,81.11
2022-12-20T11:02:40.121Z,81.42
2022-12-20T11:05:10.941Z,81.16
2022-12-20T11:10:52.963Z,80.52
2022-12-20T11:13:28.310Z,80.57
2022-12-20T11:15:57.759Z,80.39
2022-12-20T11:18:40.587Z,79.75
2022-12-20T11:21:38.351Z,80.51
2022-12-20T11:24:40.279Z,80.17
2022-12-20T11:27:32.830Z,79.97
2022-12-20T11:30:29.308Z,80.63
2022-12-20T11:33:02.351Z,80.23
2022-12-20T11:35:47.373Z,79.40
2022-12-20T11:38:42.160Z,79.67
2022-12-20T11:41:29.751Z,80.08
2022-12-20T11:44:49.766Z,79.60
2022-12-20T11:47:39.363Z,80.44
2022-12-20T11:50:44.257Z,80.31
2022-12-20T11:53:34.070Z,79.71
2022-12-20T11:56:44.355Z,80.24
2022-12-20T11:59:27.709Z,81.03
2022-12-20T12:02:04.978Z,81.71
2022-12-20T12:04:42.998Z,82.07
2022-12-20T12:07:21.944Z,82.40
2022-12-20T12:10:05.512Z,82.95
2022-12-20T12:13:09.031Z,83.03
2022-12-20T12:15:54.110Z,83.34
2022-12-20T12:18:29.333Z,83.53
2022-12-20T12:21:26.178Z,83.42
2022-12-20T12:25:15.467Z,83.57
2022-12-20T12:28:29.443Z,83.41
2022-12-20T12:31:11.238Z,82.95
2022-12-20T12:35:01.135Z,82.96
2022-12-20T12:46:31.758Z,82.20
2022-12-20T12:50:08.219Z,81.73
2022-12-20T12:52:50.974Z,81.94
2022-12-20T12:56:42.058Z,81.44
2022-12-20T12:59:26.370Z,81.47
2022-12-20T13:02:26.804Z,81.65
2022-12-20T13:05:22.334Z,81.38
2022-12-20T13:08:05.767Z,80.70
2022-12-20T13:10:35.218Z,80.03
2022-12-20T13:13:22.945Z,79.69
2022-12-20T13:17:10.060Z,81.09
2022-12-20T13:20:33.940Z,80.89
2022-12-20T13:26:56.404Z,80.08
2022-12-20T13:29:38.680Z,80.20
2022-12-20T13:33:15.383Z,81.18
2022-12-20T13:39:53.564Z,80.12
2022-12-20T13:43:25.480Z,80.07
2022-12-20T13:46:49.691Z,80.75
2022-12-20T13:49:53.773Z,81.25
2022-12-20T13:52:38.163Z,81.57
2022-12-20T13:55:19.431Z,81.52
2022-12-20T14:00:07.981Z,81.20
2022-12-20T14:01:45.949Z,80.91
2022-12-20T14:04:54.062Z,81.12
2022-12-20T14:07:41.906Z,81.43
2022-12-20T14:10:59.536Z,81.84
2022-12-20T14:14:07.334Z,82.31
2022-12-20T14:16:42.162Z,82.79
2022-12-20T14:19:21.168Z,82.76
2022-12-20T14:22:05.570Z,82.17
2022-12-20T14:24:33.699Z,82.06
2022-12-20T14:27:00.759Z,82.26
2022-12-20T14:29:31.266Z,82.35
2022-12-20T14:32:00.483Z,82.22
2022-12-20T14:34:38.104Z,82.08
2022-12-20T14:37:31.674Z,82.17
2022-12-20T14:40:17.981Z,81.62
2022-12-20T14:42:45.636Z,81.90
2022-12-20T14:45:12.245Z,82.03
2022-12-20T14:47:47.994Z,81.76
2022-12-20T14:50:20.273Z,82.22
2022-12-20T14:52:46.911Z,81.16
2022-12-20T14:55:21.198Z,81.52
2022-12-20T14:57:51.782Z,81.97
2022-12-20T15:00:18.276Z,81.79
2022-12-20T15:03:00.670Z,81.69
2022-12-20T15:05:38.304Z,82.25
2022-12-20T15:08:21.560Z,82.06
2022-12-20T15:11:10.265Z,82.17
2022-12-20T15:13:36.755Z,82.42
2022-12-20T15:16:13.847Z,82.98
2022-12-20T15:18:40.786Z,82.77
2022-12-20T15:21:15.173Z,82.73
2022-12-20T15:23:48.084Z,83.08
2022-12-20T15:26:21.413Z,82.79
2022-12-20T15:28:48.583Z,82.75
2022-12-20T15:31:18.135Z,82.92
2022-12-20T15:33:45.970Z,83.13
2022-12-20T15:36:24.409Z,82.99
2022-12-20T15:41:40.500Z,83.04
2022-12-20T15:44:11.904Z,82.61
2022-12-20T15:49:32.266Z,83.31
2022-12-20T15:51:59.538Z,83.28
2022-12-20T15:54:36.392Z,82.98
2022-12-20T15:57:09.342Z,83.52
2022-12-20T16:02:25.026Z,83.52
2022-12-20T16:04:53.572Z,83.57
2022-12-20T16:07:20.595Z,83.67
2022-12-20T16:09:47.641Z,83.53
2022-12-20T16:12:18.528Z,83.15
2022-12-20T16:14:45.863Z,83.58
2022-12-20T16:17:19.945Z,84.14
2022-12-20T16:19:49.955Z,84.14
2022-12-20T16:22:19.112Z,83.97
2022-12-20T16:24:48.929Z,84.34
2022-12-20T16:27:16.069Z,84.09
2022-12-20T16:29:47.934Z,83.63
2022-12-20T16:32:16.104Z,83.92
2022-12-20T16:34:43.829Z,83.88
2022-12-20T16:37:11.967Z,84.51
2022-12-20T16:39:40.293Z,83.86
2022-12-20T16:42:20.938Z,84.17
2022-12-20T16:44:51.556Z,83.54
2022-12-20T16:47:21.698Z,83.84
2022-12-20T16:49:53.624Z,84.04
2022-12-20T16:52:37.368Z,84.89
2022-12-20T16:55:15.406Z,84.56
2022-12-20T16:57:42.146Z,84.89
2022-12-20T17:00:11.304Z,85.43
2022-12-20T17:02:38.124Z,85.43
2022-12-20T17:05:05.670Z,85.58
2022-12-20T17:07:42.776Z,86.15
2022-12-20T17:10:11.759Z,86.24
2022-12-20T17:12:44.266Z,86.47
2022-12-20T17:15:33.705Z,86.42
2022-12-20T17:18:02.777Z,86.61
2022-12-20T17:20:36.818Z,86.53
2022-12-20T17:23:04.146Z,86.81
2022-12-20T17:25:35.816Z,87.12
2022-12-20T17:28:09.375Z,87.28
2022-12-20T17:30:45.062Z,87.35
2022-12-20T17:33:15.471Z,87.10
2022-12-20T17:35:48.075Z,87.32
2022-12-20T17:38:15.049Z,87.25
2022-12-20T17:40:46.561Z,86.58
2022-12-20T17:43:16.905Z,86.92
2022-12-20T17:45:43.833Z,87.85
2022-12-20T17:48:11.471Z,87.51
2022-12-20T17:50:40.786Z,87.72
2022-12-20T17:53:10.073Z,87.60
2022-12-20T17:55:38.276Z,88.15
2022-12-20T17:58:05.992Z,88.09
2022-12-20T18:00:38.844Z,87.69
2022-12-20T18:03:07.012Z,87.98
2022-12-20T18:05:34.278Z,87.94
2022-12-20T18:08:09.907Z,87.40
2022-12-20T18:10:40.058Z,87.83
2022-12-20T18:13:06.992Z,87.68
2022-12-20T18:15:40.792Z,87.64
2022-12-20T18:18:23.032Z,87.79
2022-12-20T18:21:10.770Z,87.34
2022-12-20T18:23:54.146Z,87.12
2022-12-20T18:26:33.539Z,86.28
2022-12-20T18:29:01.946Z,85.73
2022-12-20T18:31:34.651Z,86.10
2022-12-20T18:34:09.648Z,86.15
2022-12-20T18:36:40.136Z,85.39
2022-12-20T18:39:08.377Z,85.36
2022-12-20T18:41:36.042Z,85.64
2022-12-20T18:44:05.129Z,85.26
2022-12-20T18:46:33.570Z,85.16
2022-12-20T18:49:10.346Z,85.22
2022-12-20T18:51:45.042Z,85.05
2022-12-20T18:54:26.925Z,85.56
2022-12-20T18:57:07.675Z,84.85
2022-12-20T18:59:52.019Z,85.50
2022-12-20T19:02:18.960Z,85.55
2022-12-20T19:04:45.876Z,85.84
2022-12-20T19:07:16.280Z,85.52
2022-12-20T19:09:43.061Z,86.24
2022-12-20T19:12:14.039Z,85.71
2022-12-20T19:14:50.265Z,86.52
2022-12-20T19:17:21.247Z,86.16
2022-12-20T19:19:53.195Z,86.08
2022-12-20T19:22:20.099Z,86.37
2022-12-20T19:24:46.720Z,86.05
2022-12-20T19:27:15.324Z,86.61
2022-12-20T19:29:42.540Z,86.63
2022-12-20T19:32:15.327Z,86.81
2022-12-20T19:34:45.808Z,86.32
2022-12-20T19:37:14.548Z,86.51
2022-12-20T19:39:52.074Z,86.30
2022-12-20T19:46:06.217Z,85.96
2022-12-20T19:48:49.772Z,86.37
2022-12-20T19:51:39.899Z,86.17
2022-12-20T19:54:55.471Z,86.64
2022-12-20T19:57:28.425Z,86.87
2022-12-20T20:00:06.915Z,86.29
2022-12-20T20:05:47.939Z,86.27
2022-12-20T20:08:15.540Z,87.00
2022-12-20T20:10:42.805Z,86.72
2022-12-20T20:13:09.787Z,87.08
2022-12-20T20:15:39.630Z,87.00
2022-12-20T20:18:06.298Z,87.33
2022-12-20T20:20:34.917Z,86.91
2022-12-20T20:23:05.855Z,86.50
2022-12-20T20:25:35.302Z,86.98
2022-12-20T20:28:03.711Z,86.63
2022-12-20T20:30:30.570Z,86.77
2022-12-20T20:32:57.432Z,86.61
2022-12-20T20:35:24.115Z,86.61
2022-12-20T20:37:50.876Z,86.23
2022-12-20T20:40:20.146Z,85.98
2022-12-20T20:42:47.133Z,86.11
2022-12-20T20:45:14.127Z,86.26
2022-12-20T20:47:48.565Z,86.17
2022-12-20T20:50:18.386Z,85.62
2022-12-20T20:52:45.046Z,86.07
2022-12-20T20:55:11.599Z,86.05
2022-12-20T20:57:38.966Z,86.25
2022-12-20T21:00:07.024Z,86.08
2022-12-20T21:02:33.953Z,85.80
2022-12-20T21:05:52.591Z,86.72
2022-12-20T21:07:47.960Z,86.22
2022-12-20T21:10:15.286Z,85.84
2022-12-20T21:12:48.310Z,86.36
2022-12-20T21:15:28.119Z,86.30
2022-12-20T21:17:55.620Z,86.60
2022-12-20T21:23:13.670Z,86.88
2022-12-20T21:25:40.276Z,86.56
2022-12-20T21:28:06.975Z,86.30
2022-12-20T21:30:33.775Z,86.06
2022-12-20T21:33:03.113Z,86.28
2022-12-20T21:35:37.191Z,85.97
2022-12-20T21:38:04.062Z,86.20
2022-12-20T21:40:30.564Z,86.26
2022-12-20T21:42:57.202Z,85.88
2022-12-20T21:45:23.884Z,86.24
2022-12-20T21:47:50.590Z,86.68
2022-12-20T21:50:17.136Z,85.56
2022-12-20T21:52:44.020Z,85.40
2022-12-20T21:55:11.051Z,86.04
2022-12-20T21:57:37.651Z,86.18
2022-12-20T22:00:10.773Z,86.00
2022-12-20T22:02:41.233Z,86.10
2022-12-20T22:05:08.965Z,85.33
2022-12-20T22:07:35.653Z,86.20
2022-12-20T22:10:02.165Z,85.90
2022-12-20T22:12:28.696Z,86.91
2022-12-20T22:14:55.351Z,87.35
2022-12-20T22:17:22.768Z,87.31
2022-12-20T22:19:50.439Z,87.95
2022-12-20T22:22:18.364Z,87.92
2022-12-20T22:24:44.894Z,88.59
2022-12-20T22:27:11.758Z,88.60
2022-12-20T22:29:38.555Z,89.19
2022-12-20T22:32:05.223Z,89.62
2022-12-20T22:34:31.765Z,89.44
2022-12-20T22:37:02.067Z,88.91
2022-12-20T22:39:28.928Z,89.62
2022-12-20T22:41:55.605Z,89.92
2022-12-20T22:44:22.380Z,90.72
2022-12-20T22:46:49.110Z,91.14
2022-12-20T22:49:17.773Z,90.71
2022-12-20T22:52:06.298Z,91.28
2022-12-20T22:54:36.655Z,91.04
2022-12-20T22:57:03.538Z,91.75
2022-12-20T22:59:30.124Z,92.47
2022-12-20T23:01:56.913Z,92.53
2022-12-20T23:04:23.658Z,93.46
2022-12-20T23:06:53.392Z,93.64
2022-12-20T23:09:20.098Z,93.85
2022-12-20T23:12:05.113Z,93.77
2022-12-20T23:14:50.119Z,93.62
2022-12-20T23:17:17.413Z,93.69
2022-12-20T23:20:02.657Z,93.93
2022-12-20T23:22:39.301Z,94.43
2022-12-20T23:25:06.654Z,93.90
2022-12-20T23:27:33.853Z,93.84
2022-12-20T23:30:00.668Z,93.80
2022-12-20T23:32:27.440Z,94.02
2022-12-20T23:34:54.208Z,94.82
2022-12-20T23:37:21.230Z,94.59
2022-12-20T23:39:47.911Z,94.32
2022-12-20T23:42:14.940Z,94.17
2022-12-20T23:44:45.019Z,94.66
2022-12-20T23:47:18.807Z,94.75
2022-12-20T23:49:46.227Z,95.07
2022-12-20T23:52:13.259Z,95.15
2022-12-20T23:54:41.107Z,95.49
2022-12-20T23:57:12.419Z,95.29
2022-12-20T23:59:39.128Z,96.56
